createdAt,value
2023-01-20T00:01:03.808Z,99928.75
2023-01-20T00:03:30.696Z,99941.66
2023-01-20T00:05:57.401Z,99934.75
2023-01-20T00:08:24.002Z,99939.97
2023-01-20T00:10:50.595Z,99943.34
2023-01-20T00:13:17.090Z,99955.53
2023-01-20T00:15:43.660Z,99952.94
2023-01-20T00:18:10.179Z,99960.72
2023-01-20T00:20:36.647Z,99958.94
2023-01-20T00:23:03.261Z,99962.34
2023-01-20T00:25:29.782Z,99963.97
2023-01-20T00:27:56.366Z,99973.41
2023-01-20T00:30:23.047Z,99972.44
2023-01-20T00:32:49.544Z,99973.31
2023-01-20T00:35:16.053Z,99969.75
2023-01-20T00:37:43.141Z,99978.38
2023-01-20T00:40:10.386Z,99980.75
2023-01-20T00:42:36.940Z,99980.59
2023-01-20T00:45:03.599Z,99973.63
2023-01-20T00:47:30.085Z,99993.44
2023-01-20T00:49:56.624Z,99992.47
2023-01-20T00:52:23.213Z,99995.88
2023-01-20T00:54:49.887Z,99994.91
2023-01-20T00:57:16.403Z,99995.72
2023-01-20T00:59:42.929Z,99993.06
2023-01-20T01:02:24.987Z,99998.19
2023-01-20T01:04:51.799Z,100000.66
2023-01-20T01:07:18.460Z,99998.84
2023-01-20T01:09:44.980Z,99996.25
2023-01-20T01:12:11.526Z,100006.53
2023-01-20T01:14:38.059Z,100005.56
2023-01-20T01:17:04.629Z,100006.44
2023-01-20T01:19:31.333Z,100003.78
2023-01-20T01:21:57.874Z,100017.50
2023-01-20T01:24:24.439Z,100019.13
2023-01-20T01:26:53.096Z,100016.47
2023-01-20T01:29:19.636Z,100018.16
2023-01-20T01:31:46.422Z,100022.44
2023-01-20T01:34:12.934Z,100022.38
2023-01-20T01:36:39.417Z,100027.41
2023-01-20T01:39:06.244Z,100027.56
2023-01-20T01:41:33.108Z,100029.44
2023-01-20T01:44:08.631Z,100035.66
2023-01-20T01:46:36.533Z,100022.69
2023-01-20T01:49:24.772Z,100027.78
2023-01-20T01:52:02.777Z,100026.72
2023-01-20T01:54:37.089Z,100027.56
2023-01-20T01:57:07.472Z,100034.38
2023-01-20T01:59:35.147Z,100024.66
2023-01-20T02:02:02.954Z,100029.75
2023-01-20T02:04:31.241Z,100034.03
2023-01-20T02:07:04.508Z,100035.69
2023-01-20T02:09:31.640Z,100034.03
2023-01-20T02:12:02.327Z,100040.22
2023-01-20T02:14:38.151Z,100045.47
2023-01-20T02:17:08.467Z,100043.63
2023-01-20T02:19:45.371Z,100045.25
2023-01-20T02:22:25.572Z,100051.16
2023-01-20T02:25:27.732Z,100052.88
2023-01-20T02:28:24.590Z,100057.16
2023-01-20T02:31:09.722Z,100056.19
2023-01-20T02:33:41.537Z,100054.31
2023-01-20T02:36:30.124Z,100062.03
2023-01-20T02:39:09.275Z,100066.16
2023-01-20T02:41:56.884Z,100074.78
2023-01-20T02:44:35.872Z,100072.09
2023-01-20T02:47:05.036Z,100069.41
2023-01-20T02:49:39.286Z,100070.22
2023-01-20T02:52:18.455Z,100071.06
2023-01-20T02:54:50.243Z,100069.25
2023-01-20T02:57:25.995Z,100081.25
2023-01-20T02:59:56.876Z,100074.28
2023-01-20T03:02:26.552Z,100080.28
2023-01-20T03:05:01.394Z,100086.34
2023-01-20T03:07:31.319Z,100091.47
2023-01-20T03:10:03.346Z,100092.38
2023-01-20T03:12:42.199Z,100098.41
2023-01-20T03:15:10.509Z,100101.84
2023-01-20T03:17:37.385Z,100110.59
2023-01-20T03:20:04.888Z,100110.66
2023-01-20T03:22:32.256Z,100117.72
2023-01-20T03:24:59.554Z,100111.63
2023-01-20T03:27:26.908Z,100112.53
2023-01-20T03:29:53.380Z,100110.88
2023-01-20T03:32:27.157Z,100118.78
2023-01-20T03:34:56.021Z,100125.00
2023-01-20T03:37:23.737Z,100131.25
2023-01-20T03:39:54.032Z,100132.31
2023-01-20T03:42:27.379Z,100132.44
2023-01-20T03:45:03.908Z,100138.53
2023-01-20T03:47:33.442Z,100137.63
2023-01-20T03:50:21.063Z,100140.22
2023-01-20T03:53:13.770Z,100141.94
2023-01-20T03:55:50.125Z,100142.69
2023-01-20T03:58:25.958Z,100144.28
2023-01-20T04:00:53.119Z,100156.28
2023-01-20T04:03:25.423Z,100151.09
2023-01-20T04:05:52.899Z,100154.41
2023-01-20T04:08:22.644Z,100154.25
2023-01-20T04:10:51.665Z,100161.88
2023-01-20T04:13:18.340Z,100159.22
2023-01-20T04:16:47.447Z,100168.53
2023-01-20T04:19:13.860Z,100172.00
2023-01-20T04:21:45.411Z,100175.31
2023-01-20T04:24:23.169Z,100172.53
2023-01-20T04:26:49.638Z,100172.47
2023-01-20T04:29:16.138Z,100179.25
2023-01-20T04:31:42.705Z,100183.47
2023-01-20T04:34:13.019Z,100182.50
2023-01-20T04:36:39.642Z,100183.22
2023-01-20T04:39:06.124Z,100191.72
2023-01-20T04:41:32.737Z,100193.44
2023-01-20T04:43:59.276Z,100190.03
2023-01-20T04:46:25.803Z,100194.50
2023-01-20T04:48:52.266Z,100187.66
2023-01-20T04:51:18.839Z,100191.44
2023-01-20T04:53:45.320Z,100198.81
2023-01-20T04:56:13.040Z,100191.63
2023-01-20T04:58:40.789Z,100197.28
2023-01-20T05:01:07.794Z,100193.31
2023-01-20T05:03:35.138Z,100194.47
2023-01-20T05:06:01.863Z,100197.16
2023-01-20T05:08:28.314Z,100202.19
2023-01-20T05:10:54.808Z,100207.03
2023-01-20T05:13:21.262Z,100214.47
2023-01-20T05:15:47.826Z,100215.94
2023-01-20T05:18:14.356Z,100224.56
2023-01-20T05:20:40.908Z,100216.50
2023-01-20T05:23:07.416Z,100222.09
2023-01-20T05:25:34.028Z,100213.00
2023-01-20T05:28:00.748Z,100224.81
2023-01-20T05:30:27.565Z,100239.31
2023-01-20T05:32:54.191Z,100232.44
2023-01-20T05:35:20.767Z,100235.66
2023-01-20T05:37:47.490Z,100236.28
2023-01-20T05:40:14.229Z,100236.13
2023-01-20T05:42:40.768Z,100236.84
2023-01-20T05:45:09.195Z,100241.88
2023-01-20T05:47:35.643Z,100248.66
2023-01-20T05:50:02.133Z,100252.78
2023-01-20T05:52:29.112Z,100256.09
2023-01-20T05:54:55.561Z,100252.44
2023-01-20T05:57:26.441Z,100258.34
2023-01-20T05:59:52.922Z,100265.13
2023-01-20T06:02:19.847Z,100265.84
2023-01-20T06:04:46.938Z,100264.88
2023-01-20T06:07:14.885Z,100273.38
2023-01-20T06:09:41.795Z,100273.09
2023-01-20T06:12:11.311Z,100273.75
2023-01-20T06:14:38.069Z,100278.72
2023-01-20T06:17:04.638Z,100278.56
2023-01-20T06:19:31.114Z,100287.94
2023-01-20T06:21:57.699Z,100291.16
2023-01-20T06:24:24.273Z,100294.56
2023-01-20T06:26:51.302Z,100294.34
2023-01-20T06:29:17.920Z,100295.19
2023-01-20T06:31:45.569Z,100296.00
2023-01-20T06:34:12.878Z,100305.38
2023-01-20T06:36:39.435Z,100301.97
2023-01-20T06:39:05.894Z,100301.97
2023-01-20T06:41:32.492Z,100307.13
2023-01-20T06:43:58.972Z,100309.66
2023-01-20T06:46:25.978Z,100313.13
2023-01-20T06:48:52.485Z,100315.72
2023-01-20T06:51:20.299Z,100315.59
2023-01-20T06:53:47.888Z,100307.75
2023-01-20T06:56:15.539Z,100312.84
2023-01-20T06:58:42.135Z,100321.44
2023-01-20T07:01:12.886Z,100330.97
2023-01-20T07:03:41.353Z,100325.88
2023-01-20T07:06:20.072Z,100332.66
2023-01-20T07:08:46.945Z,100336.06
2023-01-20T07:11:13.500Z,100336.06
2023-01-20T07:13:40.043Z,100337.59
2023-01-20T07:16:09.497Z,100336.59
2023-01-20T07:18:37.875Z,100339.09
2023-01-20T07:21:05.121Z,100349.38
2023-01-20T07:23:33.550Z,100359.66
2023-01-20T07:26:09.084Z,100361.25
2023-01-20T07:28:38.842Z,100369.78
2023-01-20T07:31:05.387Z,100367.13
2023-01-20T07:33:32.816Z,100367.03
2023-01-20T07:35:59.315Z,100369.63
2023-01-20T07:38:25.855Z,100385.94
2023-01-20T07:40:52.304Z,100392.91
2023-01-20T07:43:18.810Z,100390.31
2023-01-20T07:45:45.410Z,100404.25
2023-01-20T07:48:11.959Z,100406.03
2023-01-20T07:50:38.791Z,100408.03
2023-01-20T07:53:05.273Z,100410.00
2023-01-20T07:55:32.854Z,100418.34
2023-01-20T07:57:59.367Z,100423.72
2023-01-20T08:00:25.900Z,100425.06
2023-01-20T08:02:52.430Z,100426.16
2023-01-20T08:05:19.022Z,100436.81
2023-01-20T08:07:50.149Z,100434.38
2023-01-20T08:10:17.447Z,100431.78
2023-01-20T08:12:44.060Z,100436.84
2023-01-20T08:15:10.953Z,100442.56
2023-01-20T08:17:37.433Z,100438.66
2023-01-20T08:20:04.245Z,100447.44
2023-01-20T08:22:30.671Z,100450.78
2023-01-20T08:24:57.143Z,100446.94
2023-01-20T08:27:23.600Z,100454.19
2023-01-20T08:29:50.098Z,100454.75
2023-01-20T08:32:16.678Z,100453.50
2023-01-20T08:34:43.272Z,100466.19
2023-01-20T08:37:09.771Z,100470.25
2023-01-20T08:39:36.276Z,100476.94
2023-01-20T08:42:02.752Z,100480.16
2023-01-20T08:44:30.151Z,100474.81
2023-01-20T08:46:59.336Z,100479.91
2023-01-20T08:49:26.352Z,100484.19
2023-01-20T08:51:52.851Z,100487.69
2023-01-20T08:54:19.618Z,100485.03
2023-01-20T08:56:49.415Z,100480.63
2023-01-20T08:59:15.992Z,100495.41
2023-01-20T09:01:43.819Z,100493.59
2023-01-20T09:04:11.147Z,100494.50
2023-01-20T09:06:50.280Z,100502.34
2023-01-20T09:09:19.067Z,100505.03
2023-01-20T09:11:50.782Z,100507.84
2023-01-20T09:14:22.036Z,100501.91
2023-01-20T09:16:48.925Z,100502.19
2023-01-20T09:19:15.484Z,100501.44
2023-01-20T09:21:43.076Z,100507.00
2023-01-20T09:24:09.941Z,100507.28
2023-01-20T09:26:39.858Z,100508.53
2023-01-20T09:29:10.552Z,100512.28
2023-01-20T09:31:40.068Z,100519.53
2023-01-20T09:34:07.002Z,100518.97
2023-01-20T09:36:33.594Z,100526.22
2023-01-20T09:39:18.653Z,100528.28
2023-01-20T09:42:07.465Z,100524.66
2023-01-20T09:44:47.119Z,100522.66
2023-01-20T09:47:31.158Z,100518.97
2023-01-20T09:50:24.529Z,100517.69
2023-01-20T09:53:04.778Z,100519.91
2023-01-20T09:55:54.785Z,100528.91
2023-01-20T09:58:37.060Z,100534.38
2023-01-20T10:01:24.343Z,100541.63
2023-01-20T10:04:02.899Z,100541.06
2023-01-20T10:06:41.490Z,100542.13
2023-01-20T10:09:27.025Z,100543.25
2023-01-20T10:12:10.890Z,100540.00
2023-01-20T10:14:44.637Z,100543.81
2023-01-20T10:17:27.856Z,100546.66
2023-01-20T10:20:07.865Z,100558.22
2023-01-20T10:22:45.461Z,100559.28
2023-01-20T10:25:29.581Z,100556.09
2023-01-20T10:28:00.982Z,100556.41
2023-01-20T10:30:32.247Z,100554.84
2023-01-20T10:33:13.675Z,100565.44
2023-01-20T10:35:54.884Z,100563.91
2023-01-20T10:38:34.323Z,100568.47
2023-01-20T10:41:09.288Z,100566.81
2023-01-20T10:43:35.955Z,100561.78
2023-01-20T10:46:33.934Z,100567.28
2023-01-20T10:49:09.215Z,100570.28
2023-01-20T10:52:03.577Z,100567.88
2023-01-20T10:54:59.110Z,100577.59
2023-01-20T10:57:26.110Z,100572.50
2023-01-20T11:00:00.582Z,100574.28
2023-01-20T11:02:37.914Z,100577.84
2023-01-20T11:05:18.093Z,100589.25
2023-01-20T11:07:45.996Z,100581.56
2023-01-20T11:10:18.359Z,100576.50
2023-01-20T11:12:48.657Z,100581.91
2023-01-20T11:15:21.109Z,100583.03
2023-01-20T11:18:16.346Z,100588.38
2023-01-20T11:20:45.959Z,100593.81
2023-01-20T11:23:22.921Z,100600.88
2023-01-20T11:26:18.692Z,100606.50
2023-01-20T11:29:23.448Z,100606.88
2023-01-20T11:31:53.471Z,100603.69
2023-01-20T11:34:26.645Z,100613.44
2023-01-20T11:37:05.115Z,100617.09
2023-01-20T11:39:42.925Z,100611.91
2023-01-20T11:42:26.219Z,100612.69
2023-01-20T11:44:54.930Z,100619.72
2023-01-20T11:47:37.449Z,100617.19
2023-01-20T11:50:03.856Z,100621.47
2023-01-20T11:52:48.687Z,100625.13
2023-01-20T11:55:17.124Z,100621.81
2023-01-20T11:57:49.027Z,100627.31
2023-01-20T12:00:24.378Z,100633.28
2023-01-20T12:03:16.836Z,100631.56
2023-01-20T12:05:55.038Z,100628.66
2023-01-20T12:08:26.298Z,100628.13
2023-01-20T12:10:55.481Z,100631.91
2023-01-20T12:13:29.064Z,100630.28
2023-01-20T12:15:59.162Z,100635.66
2023-01-20T12:18:36.658Z,100632.34
2023-01-20T12:21:10.399Z,100642.06
2023-01-20T12:23:47.799Z,100638.66
2023-01-20T12:26:16.924Z,100639.50
2023-01-20T12:29:02.361Z,100643.69
2023-01-20T12:31:30.985Z,100645.25
2023-01-20T12:34:04.753Z,100645.13
2023-01-20T12:36:53.633Z,100648.47
2023-01-20T12:39:44.829Z,100656.22
2023-01-20T12:42:30.127Z,100661.44
2023-01-20T12:45:18.022Z,100665.03
2023-01-20T12:48:03.001Z,100664.34
2023-01-20T12:50:56.339Z,100663.44
2023-01-20T12:53:38.990Z,100664.56
2023-01-20T12:56:26.618Z,100665.59
2023-01-20T12:59:11.448Z,100676.34
2023-01-20T13:01:47.692Z,100669.06
2023-01-20T13:04:23.144Z,100673.00
2023-01-20T13:06:56.867Z,100677.75
2023-01-20T13:09:49.885Z,100681.34
2023-01-20T13:12:55.559Z,100682.31
2023-01-20T13:15:29.533Z,100684.75
2023-01-20T13:20:53.670Z,100687.09
2023-01-20T13:23:35.622Z,100687.63
2023-01-20T13:26:05.142Z,100682.13
2023-01-20T13:28:32.155Z,100680.19
2023-01-20T13:31:00.851Z,100687.81
2023-01-20T13:33:33.223Z,100690.13
2023-01-20T13:36:12.633Z,100695.13
2023-01-20T13:38:39.592Z,100695.72
2023-01-20T13:41:06.857Z,100699.38
2023-01-20T13:43:47.936Z,100700.19
2023-01-20T13:46:15.216Z,100700.03
2023-01-20T13:49:15.166Z,100708.53
2023-01-20T13:51:46.202Z,100708.47
2023-01-20T13:54:29.178Z,100720.78
2023-01-20T13:57:20.497Z,100718.16
2023-01-20T13:59:47.006Z,100725.16
2023-01-20T14:02:22.348Z,100734.94
2023-01-20T14:04:49.614Z,100735.19
2023-01-20T14:07:29.771Z,100734.00
2023-01-20T14:09:58.881Z,100743.13
2023-01-20T14:12:25.816Z,100742.44
2023-01-20T14:14:53.122Z,100746.97
2023-01-20T14:17:22.976Z,100744.47
2023-01-20T14:19:52.656Z,100747.28
2023-01-20T14:22:23.988Z,100742.13
2023-01-20T14:24:52.951Z,100750.91
2023-01-20T14:27:23.779Z,100745.63
2023-01-20T14:29:52.974Z,100751.53
2023-01-20T14:32:24.004Z,100761.91
2023-01-20T14:34:52.052Z,100768.94
2023-01-20T14:37:29.855Z,100776.81
2023-01-20T14:39:59.810Z,100777.94
2023-01-20T14:42:29.401Z,100792.88
2023-01-20T14:44:57.008Z,100786.75
2023-01-20T14:47:25.779Z,100788.31
2023-01-20T14:49:56.234Z,100786.44
2023-01-20T14:52:28.635Z,100795.16
2023-01-20T14:54:56.300Z,100796.06
2023-01-20T14:57:31.053Z,100803.97
2023-01-20T15:00:09.493Z,100805.69
2023-01-20T15:02:37.539Z,100812.47
2023-01-20T15:05:22.910Z,100813.19
2023-01-20T15:07:51.349Z,100813.19
2023-01-20T15:10:18.444Z,100821.88
2023-01-20T15:12:47.976Z,100818.28
2023-01-20T15:15:21.772Z,100825.06
2023-01-20T15:18:23.464Z,100831.53
2023-01-20T15:21:15.569Z,100837.88
2023-01-20T15:23:45.814Z,100845.81
2023-01-20T15:26:30.506Z,100846.81
2023-01-20T15:28:58.204Z,100848.81
2023-01-20T15:31:26.444Z,100854.19
2023-01-20T15:33:53.171Z,100857.03
2023-01-20T15:36:27.357Z,100865.19
2023-01-20T15:38:54.257Z,100870.63
2023-01-20T15:41:21.066Z,100876.16
2023-01-20T15:43:49.114Z,100881.66
2023-01-20T15:46:17.308Z,100882.81
2023-01-20T15:48:45.295Z,100893.69
2023-01-20T15:51:16.918Z,100898.47
2023-01-20T15:53:44.573Z,100906.84
2023-01-20T15:56:21.327Z,100904.84
2023-01-20T15:58:48.518Z,100918.50
2023-01-20T16:01:17.416Z,100916.53
2023-01-20T16:03:44.250Z,100925.16
2023-01-20T16:06:13.565Z,100931.34
2023-01-20T16:08:41.194Z,100931.50
2023-01-20T16:11:08.981Z,100926.50
2023-01-20T16:13:36.114Z,100936.09
2023-01-20T16:16:03.112Z,100936.81
2023-01-20T16:18:30.283Z,100945.28
2023-01-20T16:20:57.093Z,100949.22
2023-01-20T16:23:23.612Z,100952.56
2023-01-20T16:25:50.323Z,100958.63
2023-01-20T16:28:22.856Z,100968.41
2023-01-20T16:30:54.037Z,100959.16
2023-01-20T16:33:25.345Z,100959.59
2023-01-20T16:35:54.235Z,100966.09
2023-01-20T16:38:23.883Z,100971.47
2023-01-20T16:41:06.096Z,100985.63
2023-01-20T16:43:32.953Z,100988.41
2023-01-20T16:45:59.447Z,100986.78
2023-01-20T16:48:26.357Z,100987.59
2023-01-20T16:50:53.119Z,100991.91
2023-01-20T16:53:19.985Z,100999.81
2023-01-20T16:55:48.557Z,101004.38
2023-01-20T16:58:16.063Z,101007.16
2023-01-20T17:00:43.094Z,101008.06
2023-01-20T17:03:09.549Z,101024.59
2023-01-20T17:05:36.136Z,101018.56
2023-01-20T17:08:03.249Z,101028.19
2023-01-20T17:10:32.419Z,101017.78
2023-01-20T17:12:59.662Z,101029.81
2023-01-20T17:15:27.183Z,101034.03
2023-01-20T17:17:57.891Z,101031.97
2023-01-20T17:20:26.677Z,101037.72
2023-01-20T17:22:57.460Z,101037.25
2023-01-20T17:25:24.221Z,101036.00
2023-01-20T17:27:50.750Z,101035.72
2023-01-20T17:30:17.733Z,101040.59
2023-01-20T17:32:48.624Z,101042.81
2023-01-20T17:35:16.007Z,101048.63
2023-01-20T17:37:42.754Z,101048.38
2023-01-20T17:40:11.025Z,101054.13
2023-01-20T17:42:37.830Z,101057.25
2023-01-20T17:45:04.664Z,101067.25
2023-01-20T17:47:31.598Z,101067.78
2023-01-20T17:49:58.261Z,101071.91
2023-01-20T17:52:24.843Z,101076.75
2023-01-20T17:54:52.146Z,101080.75
2023-01-20T17:57:18.761Z,101082.16
2023-01-20T17:59:45.279Z,101078.47
2023-01-20T18:02:12.359Z,101088.63
2023-01-20T18:04:39.313Z,101092.00
2023-01-20T18:07:05.878Z,101093.59
2023-01-20T18:09:32.774Z,101095.13
2023-01-20T18:11:59.380Z,101107.31
2023-01-20T18:14:26.426Z,101121.31
2023-01-20T18:16:54.761Z,101127.50
2023-01-20T18:19:21.333Z,101129.59
2023-01-20T18:21:47.869Z,101131.50
2023-01-20T18:24:14.444Z,101128.28
2023-01-20T18:26:42.745Z,101137.34
2023-01-20T18:29:15.387Z,101135.94
2023-01-20T18:31:42.960Z,101134.53
2023-01-20T18:34:12.474Z,101143.44
2023-01-20T18:36:41.286Z,101144.53
2023-01-20T18:39:12.785Z,101150.72
2023-01-20T18:41:40.027Z,101145.72
2023-01-20T18:44:06.896Z,101146.88
2023-01-20T18:46:34.127Z,101157.47
2023-01-20T18:49:01.155Z,101161.97
2023-01-20T18:51:29.802Z,101165.50
2023-01-20T18:53:56.254Z,101155.00
2023-01-20T18:56:24.041Z,101172.13
2023-01-20T18:58:50.977Z,101176.09
2023-01-20T19:01:19.950Z,101173.31
2023-01-20T19:03:47.453Z,101171.25
2023-01-20T19:06:22.880Z,101177.94
2023-01-20T19:08:49.911Z,101175.94
2023-01-20T19:11:18.994Z,101181.75
2023-01-20T19:13:46.846Z,101185.88
2023-01-20T19:16:13.613Z,101189.19
2023-01-20T19:18:41.333Z,101188.00
2023-01-20T19:21:12.023Z,101188.59
2023-01-20T19:23:39.113Z,101198.81
2023-01-20T19:26:14.031Z,101199.50
2023-01-20T19:28:41.229Z,101197.81
2023-01-20T19:31:13.496Z,101203.81
2023-01-20T19:33:40.353Z,101212.44
2023-01-20T19:36:10.969Z,101212.19
2023-01-20T19:38:37.963Z,101214.72
2023-01-20T19:41:09.198Z,101214.63
2023-01-20T19:43:37.095Z,101213.59
2023-01-20T19:46:10.364Z,101216.81
2023-01-20T19:48:37.995Z,101216.63
2023-01-20T19:51:15.504Z,101220.81
2023-01-20T19:53:43.987Z,101223.22
2023-01-20T19:56:14.235Z,101228.31
2023-01-20T19:58:41.794Z,101229.00
2023-01-20T20:01:17.528Z,101229.00
2023-01-20T20:03:44.833Z,101235.81
2023-01-20T20:06:23.173Z,101237.41
2023-01-20T20:08:50.446Z,101236.41
2023-01-20T20:11:17.013Z,101241.41
2023-01-20T20:13:43.515Z,101242.09
2023-01-20T20:16:10.404Z,101245.50
2023-01-20T20:18:37.207Z,101246.31
2023-01-20T20:21:04.941Z,101257.47
2023-01-20T20:23:31.574Z,101253.00
2023-01-20T20:25:58.036Z,101256.38
2023-01-20T20:28:26.913Z,101257.06
2023-01-20T20:30:57.898Z,101263.97
2023-01-20T20:33:24.696Z,101259.56
2023-01-20T20:35:51.302Z,101275.16
2023-01-20T20:38:17.860Z,101273.16
2023-01-20T20:40:44.571Z,101284.44
2023-01-20T20:43:11.106Z,101287.84
2023-01-20T20:45:37.973Z,101286.84
2023-01-20T20:48:04.953Z,101293.72
2023-01-20T20:50:31.840Z,101291.94
2023-01-20T20:52:59.121Z,101290.13
2023-01-20T20:55:26.221Z,101299.63
2023-01-20T20:57:52.741Z,101312.50
2023-01-20T21:00:23.381Z,101308.91
2023-01-20T21:02:50.022Z,101308.78
2023-01-20T21:05:18.035Z,101313.78
2023-01-20T21:07:45.217Z,101324.97
2023-01-20T21:10:14.057Z,101323.06
2023-01-20T21:12:40.947Z,101328.25
2023-01-20T21:15:08.712Z,101323.88
2023-01-20T21:17:35.249Z,101335.84
2023-01-20T21:20:01.946Z,101326.13
2023-01-20T21:22:28.720Z,101325.03
2023-01-20T21:24:55.504Z,101325.69
2023-01-20T21:27:22.752Z,101331.69
2023-01-20T21:29:49.243Z,101336.78
2023-01-20T21:32:15.961Z,101343.78
2023-01-20T21:34:42.487Z,101336.78
2023-01-20T21:37:09.036Z,101343.78
2023-01-20T21:39:35.595Z,101342.66
2023-01-20T21:42:02.205Z,101352.94
2023-01-20T21:44:28.790Z,101352.84
2023-01-20T21:46:57.164Z,101350.03
2023-01-20T21:49:43.150Z,101361.31
2023-01-20T21:52:34.247Z,101364.72
2023-01-20T21:55:01.331Z,101369.00
2023-01-20T21:57:29.188Z,101381.06
2023-01-20T21:59:58.293Z,101374.09
2023-01-20T22:02:28.466Z,101378.16
2023-01-20T22:04:55.829Z,101380.66
2023-01-20T22:07:23.095Z,101388.34
2023-01-20T22:09:49.662Z,101388.09
2023-01-20T22:12:16.191Z,101394.09
2023-01-20T22:14:43.301Z,101397.59
2023-01-20T22:17:11.431Z,101399.19
2023-01-20T22:19:38.613Z,101392.16
2023-01-20T22:22:05.515Z,101405.97
2023-01-20T22:24:32.068Z,101412.94
2023-01-20T22:26:58.945Z,101411.16
2023-01-20T22:29:25.439Z,101411.16
2023-01-20T22:31:53.697Z,101412.84
2023-01-20T22:34:21.200Z,101406.72
2023-01-20T22:36:47.966Z,101416.09
2023-01-20T22:39:15.371Z,101408.19
2023-01-20T22:41:42.122Z,101414.31
2023-01-20T22:44:09.048Z,101414.31
2023-01-20T22:46:35.698Z,101422.91
2023-01-20T22:49:02.312Z,101423.78
2023-01-20T22:51:30.045Z,101428.88
2023-01-20T22:53:58.807Z,101428.75
2023-01-20T22:56:32.572Z,101426.84
2023-01-20T22:59:00.094Z,101433.75
2023-01-20T23:01:30.155Z,101435.53
2023-01-20T23:03:59.647Z,101434.63
2023-01-20T23:06:27.944Z,101438.03
2023-01-20T23:08:54.682Z,101445.69
2023-01-20T23:11:23.389Z,101446.38
2023-01-20T23:13:50.860Z,101442.75
2023-01-20T23:16:20.080Z,101454.81
2023-01-20T23:18:46.996Z,101446.91
2023-01-20T23:21:13.723Z,101456.28
2023-01-20T23:23:40.357Z,101459.69
2023-01-20T23:26:18.641Z,101462.16
2023-01-20T23:28:46.578Z,101463.84
2023-01-20T23:31:15.952Z,101462.84
2023-01-20T23:33:43.983Z,101461.03
2023-01-20T23:36:12.750Z,101467.13
2023-01-20T23:38:39.300Z,101470.41
2023-01-20T23:41:05.966Z,101473.00
2023-01-20T23:43:32.575Z,101473.66
2023-01-20T23:46:00.811Z,101476.94
2023-01-20T23:48:28.368Z,101475.25
2023-01-20T23:50:56.347Z,101474.34
2023-01-20T23:53:23.325Z,101474.34
2023-01-20T23:55:49.860Z,101484.72
2023-01-20T23:58:16.472Z,101479.28
